createdAt,value
2023-05-08T07:42:57.723Z,70.4
2023-05-08T07:48:31.228Z,70.5
2023-05-08T07:54:08.567Z,69.5
2023-05-08T07:59:55.142Z,68.3
2023-05-08T08:06:01.861Z,66.2
2023-05-08T08:12:05.647Z,66.6
2023-05-08T08:17:41.614Z,65.6
2023-05-08T08:23:18.962Z,65.9
2023-05-08T08:28:57.499Z,62.8
2023-05-08T08:34:34.222Z,65.6
2023-05-08T08:40:11.607Z,69.1
2023-05-08T08:45:51.586Z,70
2023-05-08T08:51:50.037Z,62.4
2023-05-08T08:57:24.646Z,56.5
2023-05-08T09:03:05.394Z,57.8
2023-05-08T09:08:41.653Z,52.3
2023-05-08T09:14:19.339Z,56.2
2023-05-08T09:19:54.909Z,53.5
2023-05-08T09:25:31.007Z,54.8
2023-05-08T09:31:08.273Z,55.1
2023-05-08T09:36:56.609Z,55.3
2023-05-08T09:43:00.523Z,54
2023-05-08T09:48:37.834Z,53.7
2023-05-08T09:54:15.670Z,54.6
2023-05-08T10:00:17.200Z,53.6
2023-05-08T10:06:03.397Z,48.2
2023-05-08T10:11:39.224Z,48.5
2023-05-08T10:17:14.568Z,51.2
2023-05-08T10:23:28.786Z,54.9
2023-05-08T10:29:30.335Z,56.8
2023-05-08T10:35:06.348Z,55.2
2023-05-08T10:41:00.987Z,54.4
2023-05-08T10:47:02.633Z,54
2023-05-08T10:52:41.750Z,53.8
2023-05-08T10:58:17.458Z,54.9
2023-05-08T11:03:53.381Z,54.1
2023-05-08T11:09:30.050Z,52.7
2023-05-08T11:15:05.577Z,51.9
2023-05-08T11:20:42.204Z,49.4
2023-05-08T11:26:17.950Z,52.2
2023-05-08T11:31:57.142Z,52.6
2023-05-08T11:37:38.965Z,54.1
2023-05-08T11:43:19.272Z,55
2023-05-08T11:48:55.179Z,54.7
2023-05-08T11:54:34.906Z,52.6
2023-05-08T12:00:15.603Z,48.8
2023-05-08T12:06:27.563Z,48.3
2023-05-08T12:12:27.477Z,49.9
2023-05-08T12:18:29.880Z,45.4
2023-05-08T12:24:24.724Z,45.8
2023-05-08T12:30:06.345Z,44.7
2023-05-08T12:35:55.684Z,42.2
2023-05-08T12:41:33.840Z,41.2
2023-05-08T12:47:11.195Z,38
2023-05-08T12:52:48.052Z,39.2
2023-05-08T12:58:27.927Z,36.7
2023-05-08T13:04:32.977Z,36
2023-05-08T13:10:10.399Z,37.4
2023-05-08T13:15:47.680Z,36.5
2023-05-08T13:22:01.044Z,32.8
2023-05-08T13:27:36.996Z,27.1
2023-05-08T13:33:17.451Z,19.8
2023-05-08T13:38:52.959Z,23.2
2023-05-08T13:44:33.218Z,20.5
2023-05-08T13:50:10.919Z,20.7
2023-05-08T13:55:46.698Z,16.2
2023-05-08T14:01:27.396Z,15.2
2023-05-08T14:07:04.743Z,13.5
2023-05-08T14:12:40.325Z,16.7
2023-05-08T14:18:16.164Z,30.8
2023-05-08T14:24:01.547Z,32.8
2023-05-08T14:29:40.095Z,18.5
2023-05-08T14:35:24.089Z,16.8
2023-05-08T14:41:20.313Z,27.7
2023-05-08T14:47:09.604Z,35.3
2023-05-08T14:52:54.201Z,25.3
2023-05-08T14:58:58.233Z,21.8
2023-05-08T15:05:30.232Z,22
2023-05-08T15:11:06.223Z,19.9
2023-05-08T15:16:43.734Z,17.3
2023-05-08T15:22:20.818Z,23.5
2023-05-08T15:27:57.666Z,29.5
2023-05-08T15:33:36.514Z,31.2
2023-05-08T15:39:12.340Z,28
2023-05-08T15:44:54.811Z,30.3
2023-05-08T15:50:32.083Z,30.1
2023-05-08T15:56:13.958Z,23.2
2023-05-08T16:01:54.046Z,19.6
2023-05-08T16:07:33.037Z,20.1
2023-05-08T16:13:08.885Z,27
2023-05-08T16:18:59.149Z,35.7
2023-05-08T16:24:55.028Z,34.6
2023-05-08T16:30:30.854Z,27.4
2023-05-08T16:36:07.082Z,28.8
2023-05-08T16:41:45.670Z,25.9
2023-05-08T16:47:35.946Z,26.1
2023-05-08T16:53:12.512Z,32.9
2023-05-08T16:58:48.827Z,42.6
2023-05-08T17:04:24.244Z,48.2
2023-05-08T17:10:26.871Z,47.7
2023-05-08T17:16:03.672Z,47.3
2023-05-08T17:22:16.903Z,50.1
2023-05-08T17:27:53.825Z,49.5
2023-05-08T17:33:52.943Z,51.9
2023-05-08T17:39:39.367Z,52.9
2023-05-08T17:45:15.549Z,55.3
2023-05-08T17:50:52.322Z,54.3
2023-05-08T17:56:33.997Z,57.3
2023-05-08T18:02:13.979Z,58
2023-05-08T18:07:50.764Z,57
2023-05-08T18:13:26.350Z,58
2023-05-08T18:19:04.344Z,61.7
2023-05-08T18:24:40.981Z,59.2
2023-05-08T18:30:16.675Z,61.2
2023-05-08T18:35:53.389Z,60
2023-05-08T18:41:32.814Z,62.5
2023-05-08T18:47:20.411Z,64.6
2023-05-08T18:53:33.683Z,65
2023-05-08T18:59:23.140Z,66.5
2023-05-08T19:05:18.886Z,65.4
2023-05-08T19:11:06.759Z,68
2023-05-08T19:16:43.425Z,67.1
2023-05-08T19:22:25.943Z,69.8
2023-05-08T19:28:01.497Z,69.2
2023-05-08T19:33:38.053Z,69.5
2023-05-08T19:39:15.706Z,72
2023-05-08T19:44:59.536Z,71.2
2023-05-08T19:50:36.353Z,72.9
2023-05-08T19:56:15.771Z,71.1
2023-05-08T20:01:55.626Z,69.1
2023-05-08T20:07:41.454Z,72.1
2023-05-08T20:13:19.815Z,73.6
2023-05-08T20:19:29.843Z,73.6
2023-05-08T20:25:41.352Z,77.4
2023-05-08T20:31:21.127Z,75.7
2023-05-08T20:36:57.324Z,76.9
2023-05-08T20:42:34.252Z,78.5
2023-05-08T20:48:09.571Z,78.7
2023-05-08T20:53:45.597Z,78.7
2023-05-08T20:59:22.472Z,79.7
